createdAt,value
2023-03-29T00:00:50.957Z,52.58
2023-03-29T00:01:50.958Z,53.47
2023-03-29T00:02:51.024Z,53.92
2023-03-29T00:03:51.064Z,52.15
2023-03-29T00:04:51.730Z,52.48
2023-03-29T00:05:51.033Z,53.52
2023-03-29T00:06:50.989Z,50.96
2023-03-29T00:07:50.996Z,50.71
2023-03-29T00:08:51.014Z,50.83
2023-03-29T00:09:51.052Z,50.11
2023-03-29T00:10:51.005Z,51.42
2023-03-29T00:11:51.019Z,49.44
2023-03-29T00:12:51.016Z,50.10
2023-03-29T00:13:51.024Z,50.00
2023-03-29T00:14:51.047Z,48.22
2023-03-29T00:15:51.038Z,50.14
2023-03-29T00:16:51.169Z,49.89
2023-03-29T00:17:51.088Z,52.39
2023-03-29T00:18:51.135Z,51.39
2023-03-29T00:19:51.072Z,50.38
2023-03-29T00:20:51.078Z,50.02
2023-03-29T00:21:51.096Z,51.44
2023-03-29T00:22:51.092Z,48.16
2023-03-29T00:23:51.153Z,49.76
2023-03-29T00:24:51.113Z,48.46
2023-03-29T00:25:51.157Z,46.88
2023-03-29T00:26:51.158Z,46.77
2023-03-29T00:27:51.173Z,44.47
2023-03-29T00:28:51.166Z,44.08
2023-03-29T00:29:51.162Z,42.94
2023-03-29T00:30:51.166Z,43.53
2023-03-29T00:31:51.341Z,44.57
2023-03-29T00:32:51.393Z,43.43
2023-03-29T00:33:51.201Z,42.54
2023-03-29T00:34:51.223Z,44.28
2023-03-29T00:35:51.267Z,43.14
2023-03-29T00:36:51.240Z,42.77
2023-03-29T00:37:51.240Z,43.59
2023-03-29T00:38:51.249Z,44.70
2023-03-29T00:39:51.263Z,43.78
2023-03-29T00:40:51.287Z,43.85
2023-03-29T00:41:51.311Z,42.41
2023-03-29T00:42:51.292Z,44.31
2023-03-29T00:43:51.320Z,43.27
2023-03-29T00:44:51.315Z,41.67
2023-03-29T00:45:51.402Z,42.52
2023-03-29T00:46:51.504Z,43.27
2023-03-29T00:47:51.452Z,42.87
2023-03-29T00:48:51.371Z,42.84
2023-03-29T00:49:51.426Z,43.70
2023-03-29T00:50:51.397Z,42.79
2023-03-29T00:51:51.410Z,43.29
2023-03-29T00:52:51.418Z,44.93
2023-03-29T00:53:51.424Z,43.25
2023-03-29T00:54:51.560Z,43.58
2023-03-29T00:55:51.457Z,45.26
2023-03-29T00:56:51.539Z,43.46
2023-03-29T00:57:52.298Z,42.53
2023-03-29T00:58:51.488Z,43.64
2023-03-29T00:59:51.505Z,44.19
2023-03-29T01:00:51.498Z,43.68
2023-03-29T01:01:51.583Z,43.25
2023-03-29T01:02:51.654Z,44.46
2023-03-29T01:03:51.596Z,43.91
2023-03-29T01:04:51.556Z,43.60
2023-03-29T01:05:51.548Z,43.77
2023-03-29T01:06:51.587Z,43.57
2023-03-29T01:07:51.575Z,43.33
2023-03-29T01:08:51.589Z,44.67
2023-03-29T01:09:51.590Z,43.51
2023-03-29T01:10:51.612Z,45.76
2023-03-29T01:11:51.626Z,43.33
2023-03-29T01:12:51.628Z,44.85
2023-03-29T01:13:51.661Z,44.27
2023-03-29T01:14:51.647Z,44.48
2023-03-29T01:15:51.671Z,43.92
2023-03-29T01:16:52.418Z,42.79
2023-03-29T01:17:51.712Z,43.76
2023-03-29T01:18:51.702Z,44.12
2023-03-29T01:19:52.264Z,43.58
2023-03-29T01:20:51.718Z,43.18
2023-03-29T01:21:51.758Z,42.04
2023-03-29T01:22:52.267Z,43.05
2023-03-29T01:23:51.766Z,43.39
2023-03-29T01:24:51.780Z,42.11
2023-03-29T01:25:51.792Z,40.77
2023-03-29T01:26:51.818Z,42.35
2023-03-29T01:27:51.881Z,42.49
2023-03-29T01:28:51.823Z,43.22
2023-03-29T01:29:51.841Z,43.23
2023-03-29T01:30:51.849Z,43.76
2023-03-29T01:31:51.906Z,43.00
2023-03-29T01:32:51.931Z,41.00
2023-03-29T01:33:51.893Z,41.31
2023-03-29T01:34:51.891Z,40.16
2023-03-29T01:35:51.935Z,41.96
2023-03-29T01:36:51.918Z,42.36
2023-03-29T01:37:51.934Z,41.97
2023-03-29T01:38:51.950Z,39.75
2023-03-29T01:39:51.969Z,40.72
2023-03-29T01:40:51.975Z,40.99
2023-03-29T01:41:51.990Z,41.43
2023-03-29T01:42:52.006Z,40.25
2023-03-29T01:43:52.027Z,40.74
2023-03-29T01:44:52.029Z,41.48
2023-03-29T01:45:52.070Z,41.04
2023-03-29T01:46:52.059Z,40.94
2023-03-29T01:47:52.161Z,40.82
2023-03-29T01:48:52.103Z,40.26
2023-03-29T01:49:52.099Z,39.43
2023-03-29T01:50:52.109Z,38.64
2023-03-29T01:51:52.778Z,39.09
2023-03-29T01:52:52.145Z,40.85
2023-03-29T01:53:52.784Z,38.32
2023-03-29T01:54:52.167Z,40.67
2023-03-29T01:55:52.188Z,38.32
2023-03-29T01:56:52.346Z,36.99
2023-03-29T01:57:52.229Z,38.35
2023-03-29T01:58:52.244Z,37.69
2023-03-29T01:59:52.259Z,35.04
2023-03-29T02:00:52.288Z,36.16
2023-03-29T02:01:52.435Z,36.22
2023-03-29T02:02:52.412Z,35.90
2023-03-29T02:03:52.372Z,34.58
2023-03-29T02:04:52.357Z,32.24
2023-03-29T02:05:52.379Z,30.36
2023-03-29T02:06:53.349Z,34.52
2023-03-29T02:07:52.415Z,30.89
2023-03-29T02:08:52.458Z,33.61
2023-03-29T02:09:52.494Z,32.49
2023-03-29T02:10:52.469Z,30.35
2023-03-29T02:11:52.576Z,31.08
2023-03-29T02:12:52.527Z,30.02
2023-03-29T02:13:52.604Z,28.70
2023-03-29T02:14:52.555Z,27.61
2023-03-29T02:15:52.622Z,27.07
2023-03-29T02:16:52.602Z,28.79
2023-03-29T02:17:52.726Z,26.79
2023-03-29T02:18:52.625Z,28.31
2023-03-29T02:19:52.647Z,26.71
2023-03-29T02:20:52.650Z,26.04
2023-03-29T02:21:52.673Z,25.27
2023-03-29T02:22:52.693Z,25.92
2023-03-29T02:23:52.705Z,27.65
2023-03-29T02:24:52.719Z,28.47
2023-03-29T02:25:52.733Z,28.12
2023-03-29T02:26:53.293Z,26.38
2023-03-29T02:27:52.778Z,26.18
2023-03-29T02:28:52.794Z,25.59
2023-03-29T02:29:53.789Z,27.80
2023-03-29T02:30:52.848Z,28.75
2023-03-29T02:31:52.852Z,26.08
2023-03-29T02:32:52.871Z,27.16
2023-03-29T02:33:52.882Z,25.93
2023-03-29T02:34:52.893Z,26.77
2023-03-29T02:35:52.950Z,26.27
2023-03-29T02:36:52.944Z,26.90
2023-03-29T02:37:53.785Z,26.27
2023-03-29T02:38:52.981Z,25.42
2023-03-29T02:39:52.992Z,27.20
2023-03-29T02:40:53.005Z,26.76
2023-03-29T02:41:53.016Z,28.70
2023-03-29T02:42:53.035Z,26.86
2023-03-29T02:43:53.046Z,25.04
2023-03-29T02:44:53.061Z,26.24
2023-03-29T02:45:53.065Z,26.39
2023-03-29T02:46:53.126Z,25.46
2023-03-29T02:47:53.191Z,28.08
2023-03-29T02:48:53.135Z,26.47
2023-03-29T02:49:53.210Z,27.38
2023-03-29T02:50:53.176Z,26.11
2023-03-29T02:51:53.192Z,25.77
2023-03-29T02:52:53.209Z,25.65
2023-03-29T02:53:53.243Z,25.89
2023-03-29T02:54:53.245Z,27.96
2023-03-29T02:55:53.272Z,28.31
2023-03-29T02:56:53.353Z,28.84
2023-03-29T02:57:53.310Z,27.67
2023-03-29T02:58:53.347Z,26.78
2023-03-29T02:59:53.341Z,28.45
2023-03-29T03:00:53.370Z,28.71
2023-03-29T03:01:53.449Z,27.86
2023-03-29T03:02:53.471Z,30.31
2023-03-29T03:03:53.578Z,27.74
2023-03-29T03:04:53.457Z,27.50
2023-03-29T03:05:53.481Z,25.87
2023-03-29T03:06:53.519Z,27.71
2023-03-29T03:07:53.534Z,28.06
2023-03-29T03:08:53.564Z,25.81
2023-03-29T03:09:53.596Z,27.87
2023-03-29T03:10:53.602Z,28.35
2023-03-29T03:11:53.627Z,28.74
2023-03-29T03:12:53.659Z,25.81
2023-03-29T03:13:53.673Z,25.86
2023-03-29T03:14:54.298Z,27.28
2023-03-29T03:15:53.738Z,27.65
2023-03-29T03:16:53.733Z,27.04
2023-03-29T03:17:53.838Z,27.19
2023-03-29T03:18:53.780Z,26.65
2023-03-29T03:19:53.793Z,27.16
2023-03-29T03:20:53.802Z,26.68
2023-03-29T03:21:53.832Z,27.56
2023-03-29T03:22:53.853Z,25.76
2023-03-29T03:23:53.859Z,26.46
2023-03-29T03:24:53.869Z,27.42
2023-03-29T03:25:53.896Z,27.08
2023-03-29T03:26:53.927Z,28.68
2023-03-29T03:27:53.931Z,29.74
2023-03-29T03:28:53.963Z,28.65
2023-03-29T03:29:53.977Z,27.77
2023-03-29T03:30:53.992Z,26.33
2023-03-29T03:31:54.429Z,26.80
2023-03-29T03:32:54.042Z,27.46
2023-03-29T03:33:54.056Z,25.00
2023-03-29T03:34:54.076Z,26.07
2023-03-29T03:35:54.122Z,27.91
2023-03-29T03:36:54.105Z,28.46
2023-03-29T03:37:54.138Z,26.19
2023-03-29T03:38:54.156Z,26.57
2023-03-29T03:39:54.176Z,26.77
2023-03-29T03:40:54.217Z,26.02
2023-03-29T03:41:54.227Z,26.59
2023-03-29T03:42:54.239Z,26.99
2023-03-29T03:43:54.271Z,27.49
2023-03-29T03:44:54.291Z,26.29
2023-03-29T03:45:54.332Z,26.94
2023-03-29T03:46:54.316Z,25.83
2023-03-29T03:47:54.366Z,27.13
2023-03-29T03:48:54.361Z,25.83
2023-03-29T03:49:54.380Z,26.84
2023-03-29T03:50:54.414Z,27.06
2023-03-29T03:51:54.440Z,28.68
2023-03-29T03:52:54.479Z,27.78
2023-03-29T03:53:54.507Z,27.93
2023-03-29T03:54:54.531Z,26.92
2023-03-29T03:55:55.309Z,27.23
2023-03-29T03:56:54.631Z,29.50
2023-03-29T03:57:54.634Z,28.38
2023-03-29T03:58:54.656Z,26.75
2023-03-29T03:59:54.689Z,28.75
2023-03-29T04:00:54.713Z,26.16
2023-03-29T04:01:54.805Z,28.89
2023-03-29T04:02:54.806Z,29.00
2023-03-29T04:03:54.867Z,28.48
2023-03-29T04:04:54.815Z,26.75
2023-03-29T04:05:54.855Z,29.80
2023-03-29T04:06:54.878Z,28.64
2023-03-29T04:07:54.908Z,26.82
2023-03-29T04:08:54.950Z,26.19
2023-03-29T04:09:54.960Z,25.73
2023-03-29T04:10:55.004Z,27.51
2023-03-29T04:11:55.034Z,26.42
2023-03-29T04:12:55.067Z,28.50
2023-03-29T04:13:55.096Z,26.47
2023-03-29T04:14:55.131Z,26.49
2023-03-29T04:15:55.236Z,26.50
2023-03-29T04:16:55.196Z,25.41
2023-03-29T04:17:55.315Z,27.62
2023-03-29T04:18:55.258Z,28.57
2023-03-29T04:19:55.274Z,26.23
2023-03-29T04:20:55.314Z,26.49
2023-03-29T04:21:55.340Z,27.79
2023-03-29T04:22:55.821Z,27.13
2023-03-29T04:23:55.469Z,25.19
2023-03-29T04:24:55.416Z,27.19
2023-03-29T04:25:55.435Z,25.90
2023-03-29T04:26:55.462Z,25.95
2023-03-29T04:27:55.491Z,25.63
2023-03-29T04:28:55.524Z,25.38
2023-03-29T04:29:55.551Z,25.88
2023-03-29T04:30:55.595Z,27.12
2023-03-29T04:31:55.597Z,27.22
2023-03-29T04:32:56.442Z,26.90
2023-03-29T04:33:56.749Z,27.25
2023-03-29T04:34:55.665Z,25.37
2023-03-29T04:35:55.697Z,26.09
2023-03-29T04:36:55.709Z,26.04
2023-03-29T04:37:55.707Z,26.05
2023-03-29T04:38:56.333Z,26.31
2023-03-29T04:39:55.718Z,28.89
2023-03-29T04:40:55.723Z,28.12
2023-03-29T04:41:55.766Z,27.99
2023-03-29T04:42:55.761Z,28.25
2023-03-29T04:43:55.774Z,28.56
2023-03-29T04:44:55.809Z,28.05
2023-03-29T04:45:55.890Z,27.56
2023-03-29T04:46:55.795Z,26.91
2023-03-29T04:47:55.822Z,27.42
2023-03-29T04:48:55.821Z,27.94
2023-03-29T04:49:55.832Z,26.80
2023-03-29T04:50:55.850Z,27.84
2023-03-29T04:51:55.863Z,25.45
2023-03-29T04:52:55.878Z,25.39
2023-03-29T04:53:55.883Z,26.57
2023-03-29T04:54:55.903Z,26.60
2023-03-29T04:55:55.916Z,28.35
2023-03-29T04:56:56.026Z,28.61
2023-03-29T04:57:55.935Z,27.64
2023-03-29T04:58:55.945Z,26.28
2023-03-29T04:59:55.959Z,29.30
2023-03-29T05:00:55.973Z,26.73
2023-03-29T05:01:56.001Z,27.69
2023-03-29T05:02:56.081Z,26.98
2023-03-29T05:03:56.122Z,27.14
2023-03-29T05:04:56.014Z,27.24
2023-03-29T05:05:56.030Z,26.21
2023-03-29T05:06:56.039Z,27.58
2023-03-29T05:07:56.086Z,26.96
2023-03-29T05:08:56.077Z,29.10
2023-03-29T05:09:56.084Z,28.62
2023-03-29T05:10:56.345Z,25.24
2023-03-29T05:11:56.113Z,29.01
2023-03-29T05:12:56.155Z,28.46
2023-03-29T05:13:56.152Z,27.11
2023-03-29T05:14:56.171Z,26.67
2023-03-29T05:15:56.172Z,29.07
2023-03-29T05:16:56.183Z,26.02
2023-03-29T05:17:56.256Z,25.00
2023-03-29T05:18:56.194Z,28.16
2023-03-29T05:19:56.272Z,26.55
2023-03-29T05:20:56.229Z,28.27
2023-03-29T05:21:56.237Z,28.79
2023-03-29T05:22:56.254Z,30.72
2023-03-29T05:23:56.265Z,30.02
2023-03-29T05:24:56.268Z,34.06
2023-03-29T05:25:56.292Z,35.94
2023-03-29T05:26:56.322Z,37.82
2023-03-29T05:27:56.306Z,39.79
2023-03-29T05:28:56.319Z,46.94
2023-03-29T05:29:56.349Z,53.25
2023-03-29T05:30:56.328Z,57.89
2023-03-29T05:31:56.394Z,57.34
2023-03-29T05:32:56.362Z,58.85
2023-03-29T05:33:56.342Z,59.70
2023-03-29T05:34:56.366Z,62.92
2023-03-29T05:35:56.394Z,64.92
2023-03-29T05:36:56.361Z,67.94
2023-03-29T05:37:56.417Z,69.06
2023-03-29T05:38:56.362Z,72.74
2023-03-29T05:40:06.107Z,78.23
2023-03-29T05:40:57.361Z,78.46
2023-03-29T05:41:56.360Z,80.51
2023-03-29T05:42:56.362Z,83.55
2023-03-29T05:43:56.369Z,89.49
2023-03-29T05:44:56.376Z,96.30
2023-03-29T05:45:56.482Z,101.56
2023-03-29T05:46:56.367Z,108.51
2023-03-29T05:47:56.417Z,113.22
2023-03-29T05:48:56.357Z,117.84
2023-03-29T05:49:56.354Z,116.97
2023-03-29T05:50:56.367Z,122.39
2023-03-29T05:51:56.387Z,127.22
2023-03-29T05:52:56.402Z,131.53
2023-03-29T05:53:56.446Z,135.36
2023-03-29T05:54:56.581Z,140.88
2023-03-29T05:55:56.544Z,141.56
2023-03-29T05:56:56.555Z,144.95
2023-03-29T05:57:56.576Z,148.80
2023-03-29T05:58:56.597Z,153.02
2023-03-29T05:59:56.629Z,156.44
2023-03-29T06:00:56.703Z,158.82
2023-03-29T06:01:56.740Z,164.40
2023-03-29T06:03:06.499Z,167.72
2023-03-29T06:03:57.787Z,167.85
2023-03-29T06:04:56.842Z,168.71
2023-03-29T06:05:56.670Z,171.25
2023-03-29T06:06:56.642Z,175.77
2023-03-29T06:07:56.757Z,183.45
2023-03-29T06:08:56.622Z,185.90
2023-03-29T06:09:56.617Z,190.51
2023-03-29T06:10:56.601Z,194.28
2023-03-29T06:11:57.284Z,195.78
2023-03-29T06:12:56.588Z,199.58
2023-03-29T06:13:57.582Z,199.80
2023-03-29T06:14:56.561Z,200.96
2023-03-29T06:15:56.559Z,203.36
2023-03-29T06:16:56.607Z,208.44
2023-03-29T06:17:57.570Z,200.18
2023-03-29T06:18:56.522Z,202.63
2023-03-29T06:19:56.508Z,207.04
2023-03-29T06:20:56.501Z,213.18
2023-03-29T06:21:56.490Z,225.03
2023-03-29T06:22:56.468Z,231.16
2023-03-29T06:23:56.461Z,192.68
2023-03-29T06:24:56.452Z,78.13
2023-03-29T06:25:56.459Z,39.83
2023-03-29T06:26:56.462Z,30.68
2023-03-29T06:27:56.465Z,31.28
2023-03-29T06:28:56.474Z,33.22
2023-03-29T06:29:56.471Z,37.02
2023-03-29T06:30:56.693Z,42.49
2023-03-29T06:31:56.478Z,48.02
2023-03-29T06:32:56.493Z,53.95
2023-03-29T06:33:56.493Z,54.00
2023-03-29T06:34:56.480Z,59.91
2023-03-29T06:35:57.416Z,63.42
2023-03-29T06:36:56.550Z,72.66
2023-03-29T06:37:56.721Z,80.19
2023-03-29T06:38:56.681Z,82.35
2023-03-29T06:39:56.734Z,85.44
2023-03-29T06:40:56.793Z,91.95
2023-03-29T06:41:56.831Z,95.19
2023-03-29T06:42:56.885Z,102.18
2023-03-29T06:43:56.883Z,107.30
2023-03-29T06:44:56.921Z,109.27
2023-03-29T06:45:56.973Z,114.76
2023-03-29T06:46:56.984Z,119.55
2023-03-29T06:47:57.001Z,122.99
2023-03-29T06:48:57.011Z,127.02
2023-03-29T06:49:57.023Z,130.66
2023-03-29T06:50:57.043Z,135.83
2023-03-29T06:51:57.055Z,139.60
2023-03-29T06:52:57.062Z,143.73
2023-03-29T06:53:57.068Z,144.54
2023-03-29T06:54:57.061Z,153.24
2023-03-29T06:55:57.077Z,155.32
2023-03-29T06:56:57.085Z,160.17
2023-03-29T06:57:57.068Z,161.77
2023-03-29T06:58:57.079Z,165.28
2023-03-29T06:59:57.072Z,170.05
2023-03-29T07:00:57.072Z,170.43
2023-03-29T07:01:57.211Z,176.40
2023-03-29T07:02:57.184Z,179.65
2023-03-29T07:03:57.098Z,184.00
2023-03-29T07:04:57.064Z,186.65
2023-03-29T07:05:57.879Z,191.10
2023-03-29T07:06:57.079Z,195.10
2023-03-29T07:07:57.201Z,195.98
2023-03-29T07:08:57.882Z,196.53
2023-03-29T07:09:57.152Z,200.74
2023-03-29T07:10:57.154Z,204.71
2023-03-29T07:11:57.192Z,208.57
2023-03-29T07:12:57.232Z,213.46
2023-03-29T07:13:57.268Z,219.75
2023-03-29T07:14:57.295Z,221.35
2023-03-29T07:15:57.314Z,225.22
2023-03-29T07:16:57.510Z,227.82
2023-03-29T07:17:57.437Z,226.07
2023-03-29T07:18:57.348Z,227.86
2023-03-29T07:19:57.343Z,232.38
2023-03-29T07:20:57.408Z,231.24
2023-03-29T07:21:57.349Z,232.61
2023-03-29T07:22:57.349Z,235.35
2023-03-29T07:23:57.365Z,234.32
2023-03-29T07:24:57.372Z,233.24
2023-03-29T07:25:57.388Z,231.95
2023-03-29T07:27:04.077Z,231.17
2023-03-29T07:27:58.446Z,231.24
2023-03-29T07:28:57.400Z,231.32
2023-03-29T07:29:57.462Z,229.90
2023-03-29T07:30:57.401Z,228.69
2023-03-29T07:31:57.397Z,230.42
2023-03-29T07:32:57.503Z,228.42
2023-03-29T07:33:57.495Z,226.71
2023-03-29T07:34:57.465Z,226.64
2023-03-29T07:35:57.443Z,225.21
2023-03-29T07:36:57.894Z,224.56
2023-03-29T07:37:57.374Z,222.52
2023-03-29T07:38:57.376Z,223.88
2023-03-29T07:39:57.375Z,224.40
2023-03-29T07:40:57.375Z,222.84
2023-03-29T07:41:57.380Z,220.85
2023-03-29T07:42:57.442Z,221.98
2023-03-29T07:43:57.461Z,218.22
2023-03-29T07:44:57.514Z,217.21
2023-03-29T07:45:57.598Z,216.18
2023-03-29T07:46:57.627Z,216.97
2023-03-29T07:47:57.825Z,217.07
2023-03-29T07:48:57.744Z,215.12
2023-03-29T07:49:57.792Z,214.59
2023-03-29T07:50:57.858Z,211.82
2023-03-29T07:51:57.923Z,211.54
2023-03-29T07:52:57.976Z,211.51
2023-03-29T07:53:58.053Z,211.72
2023-03-29T07:54:58.114Z,209.49
2023-03-29T07:55:58.197Z,210.23
2023-03-29T07:56:58.392Z,209.82
2023-03-29T07:57:58.309Z,207.84
2023-03-29T07:58:58.454Z,206.05
2023-03-29T07:59:58.452Z,205.47
2023-03-29T08:00:58.561Z,203.27
2023-03-29T08:01:58.585Z,201.04
2023-03-29T08:02:58.693Z,200.15
2023-03-29T08:03:58.853Z,197.87
2023-03-29T08:04:58.899Z,195.98
2023-03-29T08:05:58.872Z,196.48
2023-03-29T08:06:58.952Z,194.44
2023-03-29T08:07:59.024Z,196.89
2023-03-29T08:08:59.081Z,193.60
2023-03-29T08:09:59.146Z,192.63
2023-03-29T08:10:59.228Z,194.64
2023-03-29T08:11:59.273Z,191.43
2023-03-29T08:12:59.350Z,192.86
2023-03-29T08:13:59.430Z,193.17
2023-03-29T08:14:59.492Z,190.24
2023-03-29T08:15:59.575Z,191.03
2023-03-29T08:16:59.651Z,193.33
2023-03-29T08:17:59.938Z,192.55
2023-03-29T08:18:59.777Z,192.71
2023-03-29T08:19:59.840Z,190.91
2023-03-29T08:21:00.011Z,192.92
2023-03-29T08:21:59.995Z,188.78
2023-03-29T08:23:00.040Z,190.76
2023-03-29T08:24:00.132Z,186.98
2023-03-29T08:25:00.172Z,187.70
2023-03-29T08:26:00.182Z,184.89
2023-03-29T08:27:00.218Z,184.24
2023-03-29T08:28:00.284Z,184.16
2023-03-29T08:29:00.341Z,184.59
2023-03-29T08:30:00.394Z,182.18
2023-03-29T08:31:00.680Z,181.12
2023-03-29T08:32:00.520Z,179.38
2023-03-29T08:33:00.594Z,181.35
2023-03-29T08:34:00.584Z,179.81
2023-03-29T08:35:00.598Z,180.57
2023-03-29T08:36:00.649Z,178.81
2023-03-29T08:37:00.711Z,177.36
2023-03-29T08:38:00.639Z,179.69
2023-03-29T08:39:00.647Z,177.52
2023-03-29T08:40:00.700Z,176.27
2023-03-29T08:41:00.913Z,177.89
2023-03-29T08:42:00.753Z,174.90
2023-03-29T08:43:00.742Z,175.05
2023-03-29T08:44:00.753Z,176.42
2023-03-29T08:45:01.833Z,173.82
2023-03-29T08:46:00.855Z,173.67
2023-03-29T08:47:00.839Z,172.97
2023-03-29T08:48:00.855Z,171.58
2023-03-29T08:49:00.826Z,171.82
2023-03-29T08:50:00.846Z,171.06
2023-03-29T08:51:01.032Z,168.04
2023-03-29T08:52:01.835Z,166.94
2023-03-29T08:53:00.898Z,168.86
2023-03-29T08:54:00.905Z,165.85
2023-03-29T08:55:00.935Z,165.62
2023-03-29T08:56:00.944Z,166.37
2023-03-29T08:57:00.989Z,163.56
2023-03-29T08:58:00.997Z,161.50
2023-03-29T08:59:00.962Z,163.41
2023-03-29T09:00:01.209Z,163.85
2023-03-29T09:01:01.360Z,164.39
2023-03-29T09:02:01.066Z,163.98
2023-03-29T09:03:01.092Z,163.04
2023-03-29T09:04:01.064Z,160.46
2023-03-29T09:05:01.921Z,158.86
2023-03-29T09:06:00.988Z,160.15
2023-03-29T09:07:00.993Z,158.72
2023-03-29T09:08:01.000Z,157.21
2023-03-29T09:09:00.991Z,157.43
2023-03-29T09:10:00.986Z,158.54
2023-03-29T09:11:01.149Z,156.94
2023-03-29T09:12:01.002Z,154.63
2023-03-29T09:13:01.032Z,154.76
2023-03-29T09:14:01.046Z,153.64
2023-03-29T09:15:01.206Z,154.00
2023-03-29T09:16:01.050Z,151.12
2023-03-29T09:17:01.015Z,149.94
2023-03-29T09:18:01.469Z,152.41
2023-03-29T09:19:01.029Z,150.65
2023-03-29T09:20:01.037Z,151.44
2023-03-29T09:21:01.343Z,151.32
2023-03-29T09:22:01.046Z,150.65
2023-03-29T09:23:01.055Z,152.59
2023-03-29T09:24:01.063Z,150.95
2023-03-29T09:25:01.098Z,150.22
2023-03-29T09:26:01.100Z,150.14
2023-03-29T09:27:01.101Z,149.31
2023-03-29T09:28:01.125Z,148.09
2023-03-29T09:29:01.128Z,149.04
2023-03-29T09:30:01.175Z,147.67
2023-03-29T09:31:01.265Z,149.70
2023-03-29T09:32:01.190Z,147.82
2023-03-29T09:33:01.179Z,148.96
2023-03-29T09:34:01.135Z,146.06
2023-03-29T09:35:01.209Z,147.55
2023-03-29T09:36:01.905Z,148.50
2023-03-29T09:37:01.167Z,150.46
2023-03-29T09:38:01.196Z,148.80
2023-03-29T09:39:01.198Z,148.13
2023-03-29T09:40:02.070Z,146.81
2023-03-29T09:41:01.653Z,149.18
2023-03-29T09:42:01.401Z,147.34
2023-03-29T09:43:01.442Z,146.19
2023-03-29T09:44:01.478Z,148.25
2023-03-29T09:45:01.432Z,147.10
2023-03-29T09:46:01.531Z,147.21
2023-03-29T09:47:01.445Z,145.61
2023-03-29T09:48:01.493Z,144.06
2023-03-29T09:49:01.514Z,145.29
2023-03-29T09:50:01.539Z,143.20
2023-03-29T09:51:01.615Z,143.46
2023-03-29T09:52:01.527Z,144.11
2023-03-29T09:53:01.550Z,143.66
2023-03-29T09:54:01.529Z,143.97
2023-03-29T09:55:01.524Z,144.52
2023-03-29T09:56:01.554Z,145.08
2023-03-29T09:57:01.634Z,142.91
2023-03-29T09:58:01.583Z,138.94
2023-03-29T09:59:01.569Z,142.70
2023-03-29T10:00:02.443Z,143.43
2023-03-29T10:01:01.802Z,142.69
2023-03-29T10:02:01.594Z,140.18
2023-03-29T10:03:01.637Z,139.08
2023-03-29T10:04:01.641Z,141.54
2023-03-29T10:05:01.717Z,138.80
2023-03-29T10:06:01.659Z,141.22
2023-03-29T10:07:01.648Z,141.63
2023-03-29T10:08:01.651Z,141.49
2023-03-29T10:09:01.660Z,139.42
2023-03-29T10:10:01.667Z,140.98
2023-03-29T10:11:01.900Z,141.04
2023-03-29T10:12:01.690Z,139.42
2023-03-29T10:13:01.699Z,138.04
2023-03-29T10:14:01.701Z,140.62
2023-03-29T10:15:01.778Z,140.87
2023-03-29T10:16:01.795Z,139.85
2023-03-29T10:17:01.816Z,137.09
2023-03-29T10:18:01.810Z,134.71
2023-03-29T10:19:01.769Z,138.48
2023-03-29T10:20:03.970Z,138.11
2023-03-29T10:21:02.210Z,135.24
2023-03-29T10:22:02.000Z,135.83
2023-03-29T10:23:02.023Z,134.38
2023-03-29T10:24:02.070Z,135.38
2023-03-29T10:25:02.053Z,135.11
2023-03-29T10:26:03.006Z,134.74
2023-03-29T10:27:02.088Z,134.61
2023-03-29T10:28:02.092Z,135.08
2023-03-29T10:29:02.110Z,134.03
2023-03-29T10:30:02.119Z,135.61
2023-03-29T10:31:02.406Z,132.05
2023-03-29T10:32:02.241Z,131.64
2023-03-29T10:33:02.190Z,129.26
2023-03-29T10:34:02.162Z,128.50
2023-03-29T10:35:02.177Z,128.36
2023-03-29T10:36:02.201Z,129.13
2023-03-29T10:37:02.203Z,128.34
2023-03-29T10:38:02.200Z,128.59
2023-03-29T10:39:04.302Z,129.18
2023-03-29T10:40:02.220Z,131.47
2023-03-29T10:41:02.372Z,128.70
2023-03-29T10:42:02.297Z,127.28
2023-03-29T10:43:02.202Z,128.20
2023-03-29T10:44:02.209Z,127.48
2023-03-29T10:45:02.209Z,125.53
2023-03-29T10:46:02.226Z,125.60
2023-03-29T10:47:02.217Z,125.07
2023-03-29T10:48:02.288Z,124.73
2023-03-29T10:49:02.218Z,124.57
2023-03-29T10:50:02.226Z,122.17
2023-03-29T10:51:02.432Z,122.06
2023-03-29T10:52:02.226Z,122.19
2023-03-29T10:53:02.219Z,123.23
2023-03-29T10:54:02.222Z,122.65
2023-03-29T10:55:02.226Z,122.89
2023-03-29T10:56:02.226Z,122.48
2023-03-29T10:57:02.252Z,123.15
2023-03-29T10:58:02.237Z,120.32
2023-03-29T10:59:02.232Z,117.84
2023-03-29T11:00:02.233Z,116.43
2023-03-29T11:01:02.419Z,119.34
2023-03-29T11:02:02.404Z,117.58
2023-03-29T11:03:02.345Z,120.24
2023-03-29T11:04:02.434Z,119.06
2023-03-29T11:05:02.273Z,116.93
2023-03-29T11:06:02.259Z,120.53
2023-03-29T11:07:02.283Z,118.34
2023-03-29T11:08:02.268Z,116.36
2023-03-29T11:09:02.344Z,114.47
2023-03-29T11:10:02.341Z,114.67
2023-03-29T11:11:02.562Z,114.55
2023-03-29T11:12:15.151Z,113.24
2023-03-29T11:13:03.307Z,113.46
2023-03-29T11:14:02.308Z,113.54
2023-03-29T11:15:02.313Z,113.58
2023-03-29T11:16:02.328Z,112.92
2023-03-29T11:17:02.317Z,112.96
2023-03-29T11:18:02.339Z,112.58
2023-03-29T11:19:02.324Z,111.12
2023-03-29T11:20:04.919Z,111.72
2023-03-29T11:21:02.395Z,112.12
2023-03-29T11:22:02.335Z,114.37
2023-03-29T11:23:02.325Z,108.15
2023-03-29T11:24:02.319Z,108.91
2023-03-29T11:25:02.337Z,105.46
2023-03-29T11:26:02.329Z,107.11
2023-03-29T11:27:02.338Z,106.60
2023-03-29T11:28:02.341Z,106.82
2023-03-29T11:29:02.357Z,106.24
2023-03-29T11:30:02.423Z,105.18
2023-03-29T11:31:02.736Z,104.42
2023-03-29T11:32:02.398Z,105.69
2023-03-29T11:33:02.379Z,103.69
2023-03-29T11:34:02.366Z,105.96
2023-03-29T11:35:02.395Z,105.65
2023-03-29T11:36:02.458Z,103.56
2023-03-29T11:37:02.384Z,102.43
2023-03-29T11:38:02.378Z,103.32
2023-03-29T11:39:02.384Z,103.23
2023-03-29T11:40:02.387Z,104.15
2023-03-29T11:41:02.768Z,102.22
2023-03-29T11:42:02.416Z,103.87
2023-03-29T11:43:02.422Z,104.33
2023-03-29T11:44:02.409Z,105.69
2023-03-29T11:45:02.420Z,103.59
2023-03-29T11:46:02.427Z,104.75
2023-03-29T11:47:02.453Z,104.63
2023-03-29T11:48:02.480Z,104.13
2023-03-29T11:49:02.418Z,103.52
2023-03-29T11:50:02.507Z,102.32
2023-03-29T11:51:02.525Z,102.24
2023-03-29T11:52:02.428Z,103.34
2023-03-29T11:53:02.421Z,101.62
2023-03-29T11:54:02.424Z,101.54
2023-03-29T11:55:02.429Z,101.00
2023-03-29T11:56:02.436Z,101.49
2023-03-29T11:57:02.467Z,98.92
2023-03-29T11:58:02.438Z,97.16
2023-03-29T11:59:02.450Z,97.00
2023-03-29T12:00:02.454Z,97.95
2023-03-29T12:01:02.723Z,96.08
2023-03-29T12:02:02.477Z,96.33
2023-03-29T12:03:02.524Z,93.92
2023-03-29T12:04:02.586Z,93.43
2023-03-29T12:05:02.477Z,91.35
2023-03-29T12:06:02.514Z,90.85
2023-03-29T12:07:02.484Z,88.68
2023-03-29T12:08:02.498Z,88.13
2023-03-29T12:09:02.503Z,87.04
2023-03-29T12:10:02.516Z,88.60
2023-03-29T12:11:02.710Z,86.43
2023-03-29T12:12:02.537Z,86.88
2023-03-29T12:13:02.552Z,82.96
2023-03-29T12:14:02.549Z,82.65
2023-03-29T12:15:02.574Z,80.07
2023-03-29T12:16:02.643Z,78.00
2023-03-29T12:17:02.671Z,76.87
2023-03-29T12:18:02.626Z,76.71
2023-03-29T12:19:02.578Z,76.35
2023-03-29T12:20:02.590Z,77.15
2023-03-29T12:21:02.590Z,75.09
2023-03-29T12:22:02.588Z,73.55
2023-03-29T12:23:02.607Z,73.80
2023-03-29T12:24:02.605Z,72.85
2023-03-29T12:25:02.609Z,72.98
2023-03-29T12:26:02.615Z,70.88
2023-03-29T12:27:02.622Z,72.84
2023-03-29T12:28:02.641Z,71.07
2023-03-29T12:29:02.636Z,68.72
2023-03-29T12:30:02.736Z,68.43
2023-03-29T12:31:02.856Z,68.01
2023-03-29T12:32:02.732Z,68.60
2023-03-29T12:33:02.751Z,70.37
2023-03-29T12:34:02.704Z,69.17
2023-03-29T12:35:02.745Z,68.74
2023-03-29T12:36:02.769Z,67.94
2023-03-29T12:37:02.725Z,69.77
2023-03-29T12:38:02.741Z,67.58
2023-03-29T12:39:02.770Z,65.45
2023-03-29T12:40:02.763Z,69.40
2023-03-29T12:41:03.040Z,65.02
2023-03-29T12:42:02.770Z,61.71